createdAt,value
2019-04-20T00:00:58.509Z,23.52
2019-04-20T00:03:34.377Z,23.52
2019-04-20T00:05:57.319Z,23.51
2019-04-20T00:08:29.574Z,23.50
2019-04-20T00:11:04.162Z,23.49
2019-04-20T00:13:37.844Z,23.49
2019-04-20T00:15:56.307Z,23.49
2019-04-20T00:18:32.478Z,23.48
2019-04-20T00:21:02.571Z,23.47
2019-04-20T00:23:33.514Z,23.47
2019-04-20T00:26:16.176Z,23.47
2019-04-20T00:28:58.944Z,23.45
2019-04-20T00:31:23.575Z,23.46
2019-04-20T00:33:47.929Z,23.45
2019-04-20T00:36:07.420Z,23.43
2019-04-20T00:38:43.668Z,23.44
2019-04-20T00:41:11.715Z,23.43
2019-04-20T00:43:40.398Z,23.42
2019-04-20T00:46:19.628Z,23.42
2019-04-20T00:48:48.478Z,23.40
2019-04-20T00:51:24.083Z,23.40
2019-04-20T00:53:43.188Z,23.40
2019-04-20T00:56:08.245Z,23.40
2019-04-20T00:58:50.620Z,23.38
2019-04-20T01:01:27.751Z,23.37
2019-04-20T01:03:50.894Z,23.37
2019-04-20T01:06:26.981Z,23.37
2019-04-20T01:08:44.277Z,23.37
2019-04-20T01:11:16.727Z,23.36
2019-04-20T01:13:50.476Z,23.35
2019-04-20T01:16:24.067Z,23.35
2019-04-20T01:18:43.766Z,23.35
2019-04-20T01:21:19.435Z,23.34
2019-04-20T01:23:50.694Z,23.34
2019-04-20T01:26:17.313Z,23.33
2019-04-20T01:28:58.506Z,23.33
2019-04-20T01:31:25.434Z,23.31
2019-04-20T01:33:57.721Z,23.32
2019-04-20T01:36:36.970Z,23.31
2019-04-20T01:39:00.177Z,23.30
2019-04-20T01:41:16.130Z,23.29
2019-04-20T01:43:45.886Z,23.29
2019-04-20T01:46:18.766Z,23.29
2019-04-20T01:48:45.071Z,23.28
2019-04-20T01:51:22.831Z,23.27
2019-04-20T01:54:07.076Z,23.27
2019-04-20T01:56:36.155Z,23.26
2019-04-20T01:59:15.783Z,23.26
2019-04-20T02:01:36.208Z,23.25
2019-04-20T02:04:11.672Z,23.25
2019-04-20T02:06:44.411Z,23.23
2019-04-20T02:09:13.626Z,23.24
2019-04-20T02:11:42.953Z,23.23
2019-04-20T02:14:11.989Z,23.22
2019-04-20T02:16:47.108Z,23.21
2019-04-20T02:19:28.987Z,23.21
2019-04-20T02:21:55.474Z,23.20
2019-04-20T02:24:12.529Z,23.19
2019-04-20T02:26:41.012Z,23.18
2019-04-20T02:29:37.332Z,23.18
2019-04-20T02:32:23.689Z,23.17
2019-04-20T02:34:55.537Z,23.18
2019-04-20T02:37:36.621Z,23.17
2019-04-20T02:40:07.236Z,23.16
2019-04-20T02:42:44.787Z,23.16
2019-04-20T02:45:11.207Z,23.15
2019-04-20T02:52:38.044Z,23.14
2019-04-20T02:57:40.330Z,23.11
2019-04-20T03:00:10.394Z,23.11
2019-04-20T03:02:18.423Z,23.12
2019-04-20T03:04:43.426Z,23.11
2019-04-20T03:07:14.903Z,23.10
2019-04-20T03:09:50.139Z,23.10
2019-04-20T03:12:31.224Z,23.09
2019-04-20T03:14:47.815Z,23.10
2019-04-20T03:17:29.732Z,23.09
2019-04-20T03:19:51.253Z,23.08
2019-04-20T03:22:34.937Z,23.07
2019-04-20T03:24:59.756Z,23.07
2019-04-20T03:27:25.382Z,23.06
2019-04-20T03:29:57.825Z,23.06
2019-04-20T03:32:58.322Z,23.05
2019-04-20T03:35:12.180Z,23.04
2019-04-20T03:37:37.604Z,23.05
2019-04-20T03:39:56.781Z,23.04
2019-04-20T03:42:12.513Z,23.04
2019-04-20T03:44:50.474Z,23.03
2019-04-20T03:47:23.184Z,23.02
2019-04-20T03:50:06.282Z,23.02
2019-04-20T03:52:43.099Z,23.00
2019-04-20T03:55:16.479Z,23.01
2019-04-20T03:58:03.395Z,23.00
2019-04-20T04:00:36.257Z,23.00
2019-04-20T04:03:34.946Z,22.99
2019-04-20T04:05:55.963Z,22.98
2019-04-20T04:08:23.717Z,22.99
2019-04-20T04:11:01.493Z,22.97
2019-04-20T04:13:18.774Z,22.97
2019-04-20T04:15:55.049Z,22.96
2019-04-20T04:18:26.264Z,22.94
2019-04-20T04:20:58.658Z,22.95
2019-04-20T04:23:38.337Z,22.94
2019-04-20T04:26:08.600Z,22.94
2019-04-20T04:28:36.964Z,22.95
2019-04-20T04:33:54.638Z,22.94
2019-04-20T04:36:08.915Z,22.95
2019-04-20T04:38:41.934Z,22.94
2019-04-20T04:43:40.099Z,22.95
2019-04-20T04:45:51.669Z,22.95
2019-04-20T04:48:27.491Z,22.96
2019-04-20T04:50:59.059Z,22.96
2019-04-20T04:53:33.801Z,22.98
2019-04-20T04:55:58.544Z,22.97
2019-04-20T04:58:21.728Z,22.97
2019-04-20T05:00:51.422Z,22.97
2019-04-20T05:03:38.733Z,22.98
2019-04-20T05:06:11.706Z,22.98
2019-04-20T05:08:31.590Z,22.99
2019-04-20T05:10:54.178Z,22.99
2019-04-20T05:13:27.666Z,23.00
2019-04-20T05:16:10.992Z,23.02
2019-04-20T05:18:44.769Z,23.03
2019-04-20T05:21:18.811Z,23.04
2019-04-20T05:23:37.588Z,23.05
2019-04-20T05:26:20.403Z,23.06
2019-04-20T05:28:42.024Z,23.07
2019-04-20T05:31:03.599Z,23.09
2019-04-20T05:33:57.095Z,23.11
2019-04-20T05:36:18.542Z,23.14
2019-04-20T05:38:59.105Z,23.18
2019-04-20T05:41:20.168Z,23.23
2019-04-20T05:44:06.423Z,23.26
2019-04-20T05:46:37.253Z,23.28
2019-04-20T05:49:13.792Z,23.32
2019-04-20T05:51:41.765Z,23.34
2019-04-20T05:54:09.855Z,23.35
2019-04-20T05:56:42.400Z,23.39
2019-04-20T05:59:07.056Z,23.42
2019-04-20T06:01:47.721Z,23.46
2019-04-20T06:04:11.607Z,23.50
2019-04-20T06:06:37.698Z,23.54
2019-04-20T06:11:47.957Z,23.64
2019-04-20T06:14:04.999Z,23.69
2019-04-20T06:16:54.031Z,23.75
2019-04-20T06:19:26.071Z,23.78
2019-04-20T06:22:06.401Z,23.85
2019-04-20T06:24:39.377Z,23.92
2019-04-20T06:27:06.017Z,24.01
2019-04-20T06:29:26.338Z,24.06
2019-04-20T06:32:05.141Z,24.14
2019-04-20T06:37:00.504Z,24.34
2019-04-20T06:42:12.507Z,24.57
2019-04-20T06:44:36.845Z,24.68
2019-04-20T06:47:08.676Z,24.82
2019-04-20T06:52:25.669Z,25.04
2019-04-20T06:55:38.151Z,25.16
2019-04-20T06:57:40.352Z,25.25
2019-04-20T07:00:12.781Z,25.37
2019-04-20T07:02:41.755Z,25.49
2019-04-20T07:05:13.850Z,25.56
2019-04-20T07:07:43.226Z,25.66
2019-04-20T07:10:14.087Z,25.73
2019-04-20T07:12:37.997Z,25.75
2019-04-20T07:15:01.793Z,25.84
2019-04-20T07:20:11.589Z,25.99
2019-04-20T07:23:09.761Z,26.07
2019-04-20T07:25:19.033Z,26.15
2019-04-20T07:27:48.969Z,26.22
2019-04-20T07:30:19.627Z,26.31
2019-04-20T07:32:52.609Z,26.37
2019-04-20T07:35:23.248Z,26.47
2019-04-20T07:38:11.506Z,26.53
2019-04-20T07:40:23.195Z,26.62
2019-04-20T07:42:51.823Z,26.69
2019-04-20T07:45:27.149Z,26.76
2019-04-20T07:47:52.668Z,26.81
2019-04-20T07:50:13.210Z,26.85
2019-04-20T07:52:43.238Z,26.94
2019-04-20T07:57:46.666Z,27.05
2019-04-20T08:00:32.147Z,27.07
2019-04-20T08:03:18.451Z,27.14
2019-04-20T08:05:36.942Z,27.21
2019-04-20T08:08:10.617Z,27.28
2019-04-20T08:10:46.837Z,27.33
2019-04-20T08:15:49.485Z,27.49
2019-04-20T08:18:21.388Z,27.56
2019-04-20T08:20:45.690Z,27.61
2019-04-20T08:23:20.295Z,27.64
2019-04-20T08:25:36.135Z,27.66
2019-04-20T08:27:57.365Z,27.78
2019-04-20T08:30:57.255Z,27.77
2019-04-20T08:33:30.881Z,27.80
2019-04-20T08:36:09.274Z,27.88
2019-04-20T08:40:58.005Z,27.87
2019-04-20T08:43:43.619Z,27.97
2019-04-20T08:46:10.377Z,27.98
2019-04-20T08:48:34.423Z,28.08
2019-04-20T08:51:03.674Z,28.11
2019-04-20T08:53:50.737Z,28.13
2019-04-20T08:55:56.990Z,28.36
2019-04-20T08:58:13.758Z,28.44
2019-04-20T09:00:50.105Z,28.66
2019-04-20T09:03:19.957Z,28.86
2019-04-20T09:05:52.303Z,29.12
2019-04-20T09:08:18.907Z,29.06
2019-04-20T09:11:02.693Z,29.05
2019-04-20T09:13:25.990Z,29.12
2019-04-20T09:15:44.726Z,29.18
2019-04-20T09:18:22.861Z,29.26
2019-04-20T09:20:52.919Z,29.43
2019-04-20T09:23:31.399Z,29.47
2019-04-20T09:26:04.785Z,29.65
2019-04-20T09:28:32.289Z,29.57
2019-04-20T09:31:11.944Z,29.61
2019-04-20T09:33:51.352Z,29.59
2019-04-20T09:36:18.503Z,29.75
2019-04-20T09:39:05.940Z,29.66
2019-04-20T09:41:59.719Z,29.77
2019-04-20T09:44:13.417Z,29.88
2019-04-20T09:46:50.061Z,29.98
2019-04-20T09:49:23.683Z,29.87
2019-04-20T09:52:01.701Z,30.02
2019-04-20T09:54:31.014Z,30.08
2019-04-20T09:57:03.716Z,29.98
2019-04-20T09:59:33.130Z,30.04
2019-04-20T10:01:55.536Z,29.92
2019-04-20T10:04:17.427Z,30.06
2019-04-20T10:06:47.561Z,30.15
2019-04-20T10:09:20.400Z,29.93
2019-04-20T10:11:47.536Z,30.26
2019-04-20T10:14:16.500Z,30.11
2019-04-20T10:16:44.913Z,30.09
2019-04-20T10:19:13.659Z,30.24
2019-04-20T10:21:43.570Z,30.15
2019-04-20T10:24:12.555Z,30.06
2019-04-20T10:26:41.107Z,30.28
2019-04-20T10:29:09.935Z,30.14
2019-04-20T10:31:44.616Z,30.52
2019-04-20T10:34:09.516Z,30.50
2019-04-20T10:36:39.698Z,30.25
2019-04-20T10:39:09.056Z,30.28
2019-04-20T10:41:46.475Z,30.08
2019-04-20T10:44:09.084Z,30.37
2019-04-20T10:46:38.849Z,30.53
2019-04-20T10:49:08.301Z,30.72
2019-04-20T10:51:37.890Z,30.63
2019-04-20T10:54:06.736Z,30.37
2019-04-20T10:56:35.222Z,30.36
2019-04-20T10:59:03.827Z,30.32
2019-04-20T11:01:33.680Z,30.54
2019-04-20T11:04:03.005Z,30.40
2019-04-20T11:06:32.381Z,30.23
2019-04-20T11:09:00.862Z,29.95
2019-04-20T11:11:31.728Z,30.21
2019-04-20T11:14:06.593Z,30.62
2019-04-20T11:16:30.608Z,30.76
2019-04-20T11:18:59.182Z,30.13
2019-04-20T11:21:28.273Z,30.62
2019-04-20T11:23:56.769Z,30.80
2019-04-20T11:26:26.481Z,30.91
2019-04-20T11:28:55.895Z,30.66
2019-04-20T11:31:26.872Z,30.47
2019-04-20T11:33:54.590Z,30.41
2019-04-20T11:36:23.288Z,30.24
2019-04-20T11:38:53.046Z,30.27
2019-04-20T11:41:26.060Z,30.63
2019-04-20T11:43:53.522Z,30.39
2019-04-20T11:46:22.835Z,30.18
2019-04-20T11:48:51.848Z,30.52
2019-04-20T11:51:21.538Z,30.19
2019-04-20T11:53:50.222Z,29.85
2019-04-20T11:56:23.920Z,29.88
2019-04-20T11:58:49.220Z,30.39
2019-04-20T12:01:41.328Z,30.49
2019-04-20T12:04:22.751Z,30.10
2019-04-20T12:06:35.412Z,30.06
2019-04-20T12:09:05.632Z,30.34
2019-04-20T12:11:52.744Z,30.40
2019-04-20T12:14:04.734Z,30.43
2019-04-20T12:16:33.242Z,30.59
2019-04-20T12:19:02.236Z,30.61
2019-04-20T12:21:30.799Z,30.52
2019-04-20T12:24:00.378Z,30.63
2019-04-20T12:26:29.099Z,30.61
2019-04-20T12:28:58.004Z,30.52
2019-04-20T12:31:27.681Z,30.50
2019-04-20T12:33:56.217Z,30.34
2019-04-20T12:36:25.973Z,30.34
2019-04-20T12:38:55.029Z,30.21
2019-04-20T12:41:34.495Z,30.11
2019-04-20T12:43:53.901Z,30.05
2019-04-20T12:46:23.415Z,29.98
2019-04-20T12:48:53.537Z,29.92
2019-04-20T12:51:25.178Z,29.91
2019-04-20T12:53:52.850Z,29.83
2019-04-20T12:56:22.385Z,29.70
2019-04-20T12:58:51.620Z,29.61
2019-04-20T13:01:22.398Z,29.48
2019-04-20T13:03:50.597Z,29.35
2019-04-20T13:06:19.612Z,29.25
2019-04-20T13:08:53.424Z,29.00
2019-04-20T13:11:22.874Z,28.75
2019-04-20T13:13:56.590Z,28.63
2019-04-20T13:16:30.372Z,28.51
2019-04-20T13:19:01.511Z,28.37
2019-04-20T13:21:31.145Z,28.15
2019-04-20T13:24:00.895Z,27.93
2019-04-20T13:26:30.900Z,27.88
2019-04-20T13:28:59.529Z,27.71
2019-04-20T13:31:27.991Z,27.53
2019-04-20T13:33:57.186Z,27.43
2019-04-20T13:36:26.219Z,27.34
2019-04-20T13:38:54.793Z,27.18
2019-04-20T13:41:24.601Z,27.06
2019-04-20T13:43:55.814Z,27.09
2019-04-20T13:46:24.626Z,26.98
2019-04-20T13:48:53.458Z,26.89
2019-04-20T13:51:23.034Z,26.84
2019-04-20T13:53:53.122Z,26.78
2019-04-20T13:56:23.790Z,26.70
2019-04-20T13:58:59.866Z,26.61
2019-04-20T14:01:35.762Z,26.49
2019-04-20T14:04:08.211Z,26.50
2019-04-20T14:06:37.353Z,26.47
2019-04-20T14:09:09.627Z,26.41
2019-04-20T14:11:39.186Z,26.35
2019-04-20T14:14:08.361Z,26.28
2019-04-20T14:16:37.061Z,26.25
2019-04-20T14:19:05.594Z,26.24
2019-04-20T14:21:34.333Z,26.22
2019-04-20T14:24:04.205Z,26.18
2019-04-20T14:26:35.721Z,26.25
2019-04-20T14:29:03.544Z,26.23
2019-04-20T14:31:32.170Z,26.19
2019-04-20T14:34:00.764Z,26.14
2019-04-20T14:36:29.227Z,26.08
2019-04-20T14:38:58.280Z,26.05
2019-04-20T14:41:26.780Z,26.03
2019-04-20T14:43:55.384Z,26.00
2019-04-20T14:46:26.210Z,25.99
2019-04-20T14:48:54.593Z,25.97
2019-04-20T14:51:23.795Z,25.96
2019-04-20T14:53:53.667Z,25.92
2019-04-20T14:56:23.404Z,25.91
2019-04-20T14:58:53.708Z,25.87
2019-04-20T15:01:24.714Z,25.83
2019-04-20T15:03:59.879Z,25.82
2019-04-20T15:06:23.531Z,25.81
2019-04-20T15:08:52.564Z,25.80
2019-04-20T15:11:21.220Z,25.77
2019-04-20T15:13:50.881Z,25.76
2019-04-20T15:16:32.729Z,25.74
2019-04-20T15:19:03.174Z,25.68
2019-04-20T15:21:33.529Z,25.75
2019-04-20T15:24:02.040Z,25.81
2019-04-20T15:26:30.813Z,25.81
2019-04-20T15:29:00.001Z,25.82
2019-04-20T15:31:28.511Z,25.83
2019-04-20T15:33:57.104Z,25.85
2019-04-20T15:36:26.275Z,25.85
2019-04-20T15:38:54.678Z,25.86
2019-04-20T15:41:23.204Z,25.89
2019-04-20T15:43:51.683Z,25.89
2019-04-20T15:46:21.337Z,25.88
2019-04-20T15:48:50.272Z,25.88
2019-04-20T15:51:19.470Z,25.87
2019-04-20T15:53:49.522Z,25.87
2019-04-20T15:56:18.652Z,25.88
2019-04-20T15:58:48.393Z,25.88
2019-04-20T16:01:18.559Z,25.89
2019-04-20T16:03:48.673Z,25.88
2019-04-20T16:06:17.213Z,25.90
2019-04-20T16:08:48.204Z,25.84
2019-04-20T16:11:17.333Z,25.82
2019-04-20T16:13:49.982Z,25.81
2019-04-20T16:16:16.323Z,25.78
2019-04-20T16:18:45.227Z,25.75
2019-04-20T16:21:20.867Z,25.74
2019-04-20T16:23:48.429Z,25.73
2019-04-20T16:26:19.825Z,25.74
2019-04-20T16:28:48.261Z,25.71
2019-04-20T16:31:18.193Z,25.72
2019-04-20T16:33:46.963Z,25.69
2019-04-20T16:36:16.516Z,25.68
2019-04-20T16:38:45.590Z,25.65
2019-04-20T16:41:14.636Z,25.65
2019-04-20T16:43:45.986Z,25.66
2019-04-20T16:46:13.428Z,25.63
2019-04-20T16:48:42.184Z,25.62
2019-04-20T16:51:11.017Z,25.61
2019-04-20T16:53:39.669Z,25.62
2019-04-20T16:56:08.624Z,25.62
2019-04-20T16:58:37.902Z,25.60
2019-04-20T17:01:07.671Z,25.60
2019-04-20T17:03:48.872Z,25.56
2019-04-20T17:06:06.767Z,25.55
2019-04-20T17:08:36.556Z,25.56
2019-04-20T17:11:05.620Z,25.54
2019-04-20T17:13:40.488Z,25.54
2019-04-20T17:16:05.836Z,25.52
2019-04-20T17:18:34.513Z,25.50
2019-04-20T17:21:05.869Z,25.51
2019-04-20T17:23:33.384Z,25.51
2019-04-20T17:26:03.992Z,25.51
2019-04-20T17:28:52.454Z,25.49
2019-04-20T17:31:25.253Z,25.47
2019-04-20T17:34:06.598Z,25.46
2019-04-20T17:36:30.785Z,25.46
2019-04-20T17:38:59.761Z,25.44
2019-04-20T17:41:46.985Z,25.43
2019-04-20T17:44:14.225Z,25.44
2019-04-20T17:46:39.153Z,25.44
2019-04-20T17:49:13.625Z,25.43
2019-04-20T17:51:54.917Z,25.44
2019-04-20T17:54:07.124Z,25.42
2019-04-20T17:56:36.248Z,25.41
2019-04-20T17:59:06.126Z,25.41
2019-04-20T18:02:06.670Z,25.42
2019-04-20T18:04:53.769Z,25.40
2019-04-20T18:07:09.743Z,25.40
2019-04-20T18:09:54.523Z,25.36
2019-04-20T18:12:03.332Z,25.35
2019-04-20T18:14:43.159Z,25.34
2019-04-20T18:17:15.041Z,25.33
2019-04-20T18:19:34.926Z,25.34
2019-04-20T18:22:07.970Z,25.34
2019-04-20T18:25:02.601Z,25.32
2019-04-20T18:27:27.938Z,25.31
2019-04-20T18:29:54.506Z,25.30
2019-04-20T18:32:25.357Z,25.29
2019-04-20T18:35:00.870Z,25.28
2019-04-20T18:37:27.449Z,25.27
2019-04-20T18:40:03.109Z,25.26
2019-04-20T18:42:31.264Z,25.24
2019-04-20T18:45:12.429Z,25.23
2019-04-20T18:47:48.090Z,25.22
2019-04-20T18:50:07.400Z,25.22
2019-04-20T18:52:27.543Z,25.22
2019-04-20T18:54:57.510Z,25.21
2019-04-20T18:57:29.282Z,25.20
2019-04-20T18:59:58.451Z,25.19
2019-04-20T19:02:31.178Z,25.18
2019-04-20T19:04:58.587Z,25.18
2019-04-20T19:07:27.974Z,25.16
2019-04-20T19:10:05.750Z,25.14
2019-04-20T19:12:41.254Z,25.14
2019-04-20T19:15:28.022Z,25.12
2019-04-20T19:17:49.705Z,25.11
2019-04-20T19:20:20.220Z,25.09
2019-04-20T19:22:50.074Z,25.07
2019-04-20T19:25:27.159Z,25.05
2019-04-20T19:27:53.926Z,25.04
2019-04-20T19:30:31.543Z,25.03
2019-04-20T19:33:09.203Z,25.01
2019-04-20T19:35:33.959Z,25.03
2019-04-20T19:38:03.305Z,25.02
2019-04-20T19:40:33.745Z,25.01
2019-04-20T19:43:02.393Z,25.00
2019-04-20T19:45:56.915Z,24.96
2019-04-20T19:48:09.330Z,24.95
2019-04-20T19:50:46.561Z,24.93
2019-04-20T19:53:16.453Z,24.92
2019-04-20T19:55:37.812Z,24.90
2019-04-20T19:58:09.746Z,24.88
2019-04-20T20:00:25.231Z,24.86
2019-04-20T20:02:54.164Z,24.85
2019-04-20T20:05:28.956Z,24.82
2019-04-20T20:08:03.541Z,24.82
2019-04-20T20:10:27.973Z,24.81
2019-04-20T20:13:00.283Z,24.80
2019-04-20T20:15:29.652Z,24.78
2019-04-20T20:18:12.426Z,24.77
2019-04-20T20:20:45.583Z,24.76
2019-04-20T20:22:57.305Z,24.77
2019-04-20T20:25:29.608Z,24.74
2019-04-20T20:27:58.493Z,24.73
2019-04-20T20:30:33.163Z,24.73
2019-04-20T20:33:13.843Z,24.73
2019-04-20T20:35:28.674Z,24.73
2019-04-20T20:37:57.831Z,24.72
2019-04-20T20:40:32.289Z,24.71
2019-04-20T20:43:07.312Z,24.71
2019-04-20T20:45:33.679Z,24.69
2019-04-20T20:48:15.829Z,24.69
2019-04-20T20:50:48.880Z,24.67
2019-04-20T20:53:05.116Z,24.67
2019-04-20T20:55:34.451Z,24.66
2019-04-20T20:58:06.512Z,24.65
2019-04-20T21:00:41.891Z,24.63
2019-04-20T21:03:02.762Z,24.62
2019-04-20T21:05:27.642Z,24.61
2019-04-20T21:07:57.415Z,24.60
2019-04-20T21:10:34.500Z,24.60
2019-04-20T21:13:01.084Z,24.59
2019-04-20T21:15:28.123Z,24.58
2019-04-20T21:18:20.956Z,24.57
2019-04-20T21:20:47.910Z,24.56
2019-04-20T21:23:13.902Z,24.55
2019-04-20T21:25:34.606Z,24.54
2019-04-20T21:28:02.585Z,24.52
2019-04-20T21:30:38.044Z,24.52
2019-04-20T21:33:03.642Z,24.50
2019-04-20T21:35:37.991Z,24.50
2019-04-20T21:38:06.594Z,24.49
2019-04-20T21:40:39.369Z,24.47
2019-04-20T21:43:06.983Z,24.47
2019-04-20T21:45:36.093Z,24.45
2019-04-20T21:48:09.637Z,24.45
2019-04-20T21:50:53.521Z,24.42
2019-04-20T21:53:11.885Z,24.42
2019-04-20T21:55:34.200Z,24.40
2019-04-20T21:58:05.344Z,24.39
2019-04-20T22:00:42.514Z,24.38
2019-04-20T22:03:11.305Z,24.38
2019-04-20T22:05:38.208Z,24.35
2019-04-20T22:08:10.574Z,24.35
2019-04-20T22:10:36.925Z,24.35
2019-04-20T22:13:06.276Z,24.32
2019-04-20T22:15:40.699Z,24.32
2019-04-20T22:18:09.698Z,24.33
2019-04-20T22:20:49.434Z,24.29
2019-04-20T22:23:15.938Z,24.29
2019-04-20T22:25:52.854Z,24.28
2019-04-20T22:28:06.998Z,24.27
2019-04-20T22:30:35.984Z,24.26
2019-04-20T22:33:06.203Z,24.25
2019-04-20T22:35:36.069Z,24.24
2019-04-20T22:38:10.527Z,24.22
2019-04-20T22:40:37.066Z,24.21
2019-04-20T22:43:06.374Z,24.21
2019-04-20T22:45:42.184Z,24.19
2019-04-20T22:48:09.046Z,24.20
2019-04-20T22:50:51.319Z,24.19
2019-04-20T22:53:22.685Z,24.17
2019-04-20T22:56:04.398Z,24.17
2019-04-20T22:58:23.659Z,24.16
2019-04-20T23:00:46.749Z,24.15
2019-04-20T23:03:07.177Z,24.15
2019-04-20T23:05:36.569Z,24.15
2019-04-20T23:08:06.593Z,24.13
2019-04-20T23:10:39.993Z,24.13
2019-04-20T23:13:07.309Z,24.12
2019-04-20T23:15:36.323Z,24.12
2019-04-20T23:18:06.230Z,24.11
2019-04-20T23:20:38.720Z,24.11
2019-04-20T23:23:05.058Z,24.11
2019-04-20T23:25:33.631Z,24.11
2019-04-20T23:28:08.181Z,24.10
2019-04-20T23:30:37.483Z,24.10
2019-04-20T23:33:02.495Z,24.09
2019-04-20T23:35:31.803Z,24.09
2019-04-20T23:38:07.580Z,24.09
2019-04-20T23:40:31.926Z,24.07
2019-04-20T23:43:02.115Z,24.06
2019-04-20T23:45:43.857Z,24.06
2019-04-20T23:48:30.499Z,24.06
2019-04-20T23:51:10.271Z,24.05
2019-04-20T23:53:40.258Z,24.03
2019-04-20T23:55:57.595Z,24.04
2019-04-20T23:58:26.473Z,24.02
